Time;durP1;ratioP1;P1;durP2;ratioP2;P2;SDS_P1;SDS_P2;PMS_P1;PMS_P2;Temp;Humidity;BMP_temperature;BMP_pressure;BME280_temperature;BME280_humidity;BME280_pressure;Samples;Min_cycle;Max_cycle;Signal;HPM_P1;HPM_P2
2021/07/12 00:00:13;;;;;;;3.40;1.92;;;;;;;;;;8194977;28;20034;-72
2021/07/12 00:04:19;;;;;;;6.65;2.22;;;;;;;;;;8183420;28;20341;-72
2021/07/12 00:08:24;;;;;;;8.63;2.00;;;;;;;;;;8198097;28;20501;-72
2021/07/12 00:12:29;;;;;;;5.35;2.33;;;;;;;;;;8197549;28;20508;-71
2021/07/12 00:16:34;;;;;;;3.08;2.20;;;;;;;;;;8200078;28;20046;-72
2021/07/12 00:20:40;;;;;;;4.18;2.20;;;;;;;;;;8198874;28;20050;-73
2021/07/12 00:24:45;;;;;;;3.25;2.22;;;;;;;;;;8197705;28;20381;-72
2021/07/12 00:28:50;;;;;;;4.30;2.20;;;;;;;;;;8198576;28;20366;-72
2021/07/12 00:32:57;;;;;;;4.47;2.22;;;;;;;;;;8197108;28;20397;-71
2021/07/12 00:37:02;;;;;;;7.35;2.30;;;;;;;;;;8197912;28;20487;-71
2021/07/12 00:41:08;;;;;;;5.38;2.17;;;;;;;;;;8197440;28;20369;-72
2021/07/12 00:45:19;;;;;;;6.13;2.20;;;;;;;;;;8195281;28;20471;-72
2021/07/12 00:49:25;;;;;;;3.58;2.17;;;;;;;;;;8195849;28;20483;-71
2021/07/12 00:53:32;;;;;;;6.78;2.38;;;;;;;;;;8194337;28;20483;-72
2021/07/12 00:57:38;;;;;;;2.90;2.38;;;;;;;;;;8194832;28;20049;-72
2021/07/12 01:01:43;;;;;;;5.68;2.47;;;;;;;;;;8195516;28;20380;-71
2021/07/12 01:05:49;;;;;;;4.07;2.03;;;;;;;;;;8211542;28;20465;-72
2021/07/12 01:09:55;;;;;;;2.50;1.90;;;;;;;;;;8196503;28;20442;-72
2021/07/12 01:14:13;;;;;;;14.18;2.13;;;;;;;;;;8208987;28;20404;-72
2021/07/12 01:18:44;;;;;;;3.55;1.75;;;;;;;;;;8193103;28;20507;-73
2021/07/12 01:23:01;;;;;;;2.17;1.83;;;;;;;;;;8194288;28;20326;-73
2021/07/12 01:27:44;;;;;;;9.83;2.17;;;;;;;;;;8195790;28;20492;-72
2021/07/12 01:32:45;;;;;;;6.13;2.65;;;;;;;;;;8194066;28;20983;-72
2021/07/12 01:37:13;;;;;;;3.53;1.95;;;;;;;;;;8193943;28;20380;-72
2021/07/12 01:41:44;;;;;;;4.28;2.45;;;;;;;;;;8194160;28;20049;-73
2021/07/12 01:46:17;;;;;;;5.65;2.10;;;;;;;;;;8193841;28;20433;-72
2021/07/12 01:50:34;;;;;;;2.67;2.10;;;;;;;;;;8195762;28;20361;-72
2021/07/12 01:55:06;;;;;;;4.10;2.20;;;;;;;;;;8178482;28;20492;-71
2021/07/12 01:59:30;;;;;;;2.83;1.85;;;;;;;;;;8193190;28;20381;-74
2021/07/12 02:03:40;;;;;;;3.35;2.10;;;;;;;;;;8178231;28;20385;-72
2021/07/12 02:07:50;;;;;;;3.30;1.73;;;;;;;;;;8194428;28;20364;-72
2021/07/12 02:11:58;;;;;;;3.45;2.15;;;;;;;;;;8208471;28;20453;-72
2021/07/12 02:16:15;;;;;;;5.82;2.35;;;;;;;;;;8192398;28;20057;-73
2021/07/12 02:20:26;;;;;;;2.67;2.00;;;;;;;;;;8193448;28;20384;-72
2021/07/12 02:24:34;;;;;;;4.88;2.28;;;;;;;;;;8192473;28;20453;-72
2021/07/12 02:28:44;;;;;;;4.22;2.47;;;;;;;;;;8193240;28;20343;-72
2021/07/12 02:32:50;;;;;;;6.15;2.88;;;;;;;;;;8192791;28;20438;-73
2021/07/12 02:36:56;;;;;;;9.68;2.47;;;;;;;;;;8193110;28;20373;-73
2021/07/12 02:41:12;;;;;;;2.67;2.10;;;;;;;;;;8177157;28;20475;-73
2021/07/12 02:45:20;;;;;;;6.40;2.63;;;;;;;;;;8191643;28;20641;-72
2021/07/12 02:49:29;;;;;;;2.50;1.95;;;;;;;;;;8192381;28;20050;-72
2021/07/12 02:53:41;;;;;;;5.95;2.80;;;;;;;;;;8192992;28;20385;-72
2021/07/12 02:57:47;;;;;;;6.18;2.50;;;;;;;;;;8207120;28;20071;-73
2021/07/12 03:01:53;;;;;;;9.07;2.72;;;;;;;;;;8193037;28;20488;-72
2021/07/12 03:06:32;;;;;;;3.00;2.10;;;;;;;;;;8192086;28;20499;-72
2021/07/12 03:10:56;;;;;;;7.05;2.38;;;;;;;;;;8192160;28;20466;-72
2021/07/12 03:15:12;;;;;;;9.32;2.88;;;;;;;;;;8207328;28;20453;-71
2021/07/12 03:19:27;;;;;;;4.80;2.88;;;;;;;;;;8193429;28;20469;-72
2021/07/12 03:23:42;;;;;;;4.80;2.55;;;;;;;;;;8192276;28;20050;-72
2021/07/12 03:27:47;;;;;;;3.97;3.00;;;;;;;;;;8206911;28;20408;-72
2021/07/12 03:31:54;;;;;;;5.93;3.35;;;;;;;;;;8191540;28;20496;-72
2021/07/12 03:36:00;;;;;;;4.75;2.90;;;;;;;;;;8192251;28;20365;-72
2021/07/12 03:40:09;;;;;;;4.28;2.90;;;;;;;;;;8198030;28;20388;-72
2021/07/12 03:44:15;;;;;;;6.18;2.92;;;;;;;;;;8198577;28;20445;-72
2021/07/12 03:48:40;;;;;;;6.88;3.38;;;;;;;;;;8199468;28;20046;-72
2021/07/12 03:52:50;;;;;;;5.53;3.35;;;;;;;;;;8198995;28;20503;-72
2021/07/12 03:56:54;;;;;;;6.30;2.97;;;;;;;;;;8198119;28;20396;-74
2021/07/12 04:01:00;;;;;;;5.72;3.15;;;;;;;;;;8197337;28;20481;-72
2021/07/12 04:05:07;;;;;;;6.13;2.80;;;;;;;;;;8198188;28;20480;-73
2021/07/12 04:09:13;;;;;;;6.10;3.55;;;;;;;;;;8212259;28;20503;-74
2021/07/12 04:13:18;;;;;;;14.45;3.42;;;;;;;;;;8197662;28;20482;-73
2021/07/12 04:17:24;;;;;;;4.28;3.42;;;;;;;;;;8200462;28;20349;-73
2021/07/12 04:21:30;;;;;;;11.43;3.92;;;;;;;;;;8197091;28;20417;-73
2021/07/12 04:25:35;;;;;;;10.10;3.70;;;;;;;;;;8162569;28;20460;-73
2021/07/12 04:29:40;;;;;;;6.82;3.75;;;;;;;;;;8157299;28;20465;-74
2021/07/12 04:33:46;;;;;;;4.65;3.17;;;;;;;;;;8197371;28;20491;-74
2021/07/12 04:37:51;;;;;;;5.10;3.40;;;;;;;;;;8196157;28;20337;-74
2021/07/12 04:41:56;;;;;;;7.35;3.78;;;;;;;;;;8197095;28;20469;-73
2021/07/12 04:46:02;;;;;;;6.28;3.97;;;;;;;;;;8072533;28;20693;-74
2021/07/12 04:50:10;;;;;;;5.20;3.63;;;;;;;;;;8190107;28;20050;-74
2021/07/12 04:54:15;;;;;;;4.28;3.55;;;;;;;;;;8195633;28;20495;-74
2021/07/12 04:58:20;;;;;;;14.98;3.92;;;;;;;;;;8194703;28;20473;-73
2021/07/12 05:02:27;;;;;;;15.07;3.85;;;;;;;;;;8222841;28;20452;-73
2021/07/12 05:06:31;;;;;;;5.22;3.78;;;;;;;;;;8195347;28;20376;-74
2021/07/12 05:10:41;;;;;;;10.57;3.63;;;;;;;;;;8243327;28;20583;-73
2021/07/12 05:14:47;;;;;;;9.18;3.35;;;;;;;;;;8228163;28;20061;-73
2021/07/12 05:18:52;;;;;;;10.98;3.58;;;;;;;;;;8227560;28;20424;-73
2021/07/12 05:22:58;;;;;;;7.70;3.95;;;;;;;;;;8228582;28;20385;-75
2021/07/12 05:27:03;;;;;;;5.90;3.55;;;;;;;;;;8229810;28;20376;-72
2021/07/12 05:31:08;;;;;;;4.57;3.30;;;;;;;;;;8227488;28;20340;-73
2021/07/12 05:35:14;;;;;;;6.30;3.33;;;;;;;;;;8227233;28;20503;-73
2021/07/12 05:39:20;;;;;;;6.65;3.55;;;;;;;;;;8227921;28;20041;-73
2021/07/12 05:43:25;;;;;;;7.07;4.13;;;;;;;;;;8227269;28;20080;-73
2021/07/12 05:47:30;;;;;;;7.68;4.63;;;;;;;;;;8242523;28;20053;-73
2021/07/12 05:51:35;;;;;;;7.05;3.85;;;;;;;;;;8187476;28;20447;-72
2021/07/12 05:55:41;;;;;;;9.32;4.68;;;;;;;;;;8225743;28;20438;-72
2021/07/12 05:59:46;;;;;;;8.18;5.40;;;;;;;;;;8208289;28;20373;-74
2021/07/12 06:03:51;;;;;;;12.35;6.78;;;;;;;;;;8227008;28;20512;-72
2021/07/12 06:07:57;;;;;;;17.05;6.75;;;;;;;;;;8226450;28;20395;-72
2021/07/12 06:12:03;;;;;;;14.95;10.27;;;;;;;;;;8226782;28;20042;-73
2021/07/12 06:16:10;;;;;;;19.20;10.77;;;;;;;;;;8225757;28;20495;-73
2021/07/12 06:20:17;;;;;;;19.10;12.00;;;;;;;;;;8225691;28;20068;-73
2021/07/12 06:24:24;;;;;;;18.40;11.57;;;;;;;;;;8226799;28;20991;-72
2021/07/12 06:28:29;;;;;;;25.63;12.98;;;;;;;;;;8225432;28;20441;-72
2021/07/12 06:32:35;;;;;;;23.98;13.18;;;;;;;;;;8225886;28;20464;-72
2021/07/12 06:36:40;;;;;;;20.80;13.27;;;;;;;;;;8225861;28;20349;-72
2021/07/12 06:40:46;;;;;;;24.00;13.23;;;;;;;;;;8225517;28;20377;-71
2021/07/12 06:44:57;;;;;;;25.40;14.15;;;;;;;;;;8223516;28;20482;-73
2021/07/12 06:49:04;;;;;;;21.85;12.35;;;;;;;;;;8223897;28;20357;-71
2021/07/12 06:53:12;;;;;;;21.55;11.73;;;;;;;;;;8226100;28;20342;-71
2021/07/12 06:57:17;;;;;;;19.90;11.77;;;;;;;;;;8225456;28;20076;-71
2021/07/12 07:01:23;;;;;;;24.20;12.23;;;;;;;;;;8223963;28;20365;-72
2021/07/12 07:05:30;;;;;;;20.70;11.82;;;;;;;;;;8225344;28;20465;-72
2021/07/12 07:09:52;;;;;;;16.33;11.23;;;;;;;;;;8223854;28;20076;-71
2021/07/12 07:13:57;;;;;;;19.55;11.82;;;;;;;;;;8206532;28;20175;-71
2021/07/12 07:18:01;;;;;;;20.05;11.27;;;;;;;;;;8223596;28;20504;-73
2021/07/12 07:22:07;;;;;;;19.38;11.00;;;;;;;;;;8225800;28;20489;-72
2021/07/12 07:26:24;;;;;;;18.05;10.63;;;;;;;;;;8225908;28;20352;-71
2021/07/12 07:30:35;;;;;;;16.15;11.43;;;;;;;;;;8224249;28;20465;-73
2021/07/12 07:34:41;;;;;;;22.10;11.13;;;;;;;;;;8225692;28;20499;-70
2021/07/12 07:38:46;;;;;;;16.42;9.82;;;;;;;;;;8226438;28;20338;-72
2021/07/12 07:42:50;;;;;;;15.35;9.48;;;;;;;;;;8223408;28;20071;-71
2021/07/12 07:46:55;;;;;;;15.15;9.90;;;;;;;;;;8222143;28;20389;-71
2021/07/12 07:51:00;;;;;;;15.30;9.32;;;;;;;;;;8239989;28;20472;-71
2021/07/12 07:55:08;;;;;;;21.70;9.27;;;;;;;;;;8223432;28;20083;-71
2021/07/12 07:59:14;;;;;;;11.68;7.55;;;;;;;;;;8224873;28;20373;-71
2021/07/12 08:03:20;;;;;;;12.80;7.60;;;;;;;;;;8224328;28;20072;-70
2021/07/12 08:07:24;;;;;;;12.00;7.53;;;;;;;;;;8223508;28;20362;-71
2021/07/12 08:11:32;;;;;;;11.93;7.95;;;;;;;;;;8224665;28;20341;-70
2021/07/12 08:15:39;;;;;;;12.20;7.50;;;;;;;;;;8223115;28;20067;-71
2021/07/12 08:19:44;;;;;;;12.77;6.78;;;;;;;;;;8123830;28;20056;-70
2021/07/12 08:23:50;;;;;;;11.88;7.88;;;;;;;;;;8241188;28;20490;-71
2021/07/12 08:27:55;;;;;;;12.77;7.43;;;;;;;;;;8230994;28;20488;-70
2021/07/12 08:32:00;;;;;;;11.35;7.95;;;;;;;;;;8244742;28;20044;-70
2021/07/12 08:36:06;;;;;;;15.63;7.53;;;;;;;;;;8232370;28;20473;-70
2021/07/12 08:40:11;;;;;;;10.23;7.15;;;;;;;;;;8229900;28;20376;-70
2021/07/12 08:44:15;;;;;;;10.48;7.45;;;;;;;;;;8229360;28;20492;-70
2021/07/12 08:48:20;;;;;;;12.18;7.00;;;;;;;;;;8230550;28;20481;-71
2021/07/12 08:52:25;;;;;;;13.35;7.30;;;;;;;;;;8229201;28;20492;-71
2021/07/12 08:56:31;;;;;;;10.68;6.97;;;;;;;;;;8183160;28;20627;-70
2021/07/12 09:00:53;;;;;;;9.73;5.35;;;;;;;;;;8239299;28;20476;-72
2021/07/12 09:04:59;;;;;;;10.48;4.70;;;;;;;;;;8227929;28;20488;-71
2021/07/12 09:09:06;;;;;;;8.82;4.90;;;;;;;;;;8228950;28;20457;-70
2021/07/12 09:13:11;;;;;;;;;;;;;;;;;;8227507;28;20476;-72
2021/07/12 09:17:33;;;;;;;7.03;5.00;;;;;;;;;;8228279;28;20256;-71
2021/07/12 09:22:10;;;;;;;7.68;5.35;;;;;;;;;;8228016;28;20432;-70
2021/07/12 09:26:23;;;;;;;7.07;5.28;;;;;;;;;;8229841;28;20464;-70
2021/07/12 09:30:34;;;;;;;8.18;5.45;;;;;;;;;;8226116;28;20350;-72
2021/07/12 09:34:39;;;;;;;7.53;4.97;;;;;;;;;;8226085;28;20334;-71
2021/07/12 09:38:44;;;;;;;8.60;5.70;;;;;;;;;;8228636;28;20365;-70
2021/07/12 09:42:55;;;;;;;8.93;5.47;;;;;;;;;;8228736;28;20345;-71
2021/07/12 09:47:12;;;;;;;9.43;5.50;;;;;;;;;;8224917;28;20436;-72
2021/07/12 09:51:33;;;;;;;12.27;5.80;;;;;;;;;;8241323;28;20357;-74
2021/07/12 09:55:41;;;;;;;8.98;5.40;;;;;;;;;;8225109;28;20394;-75
2021/07/12 10:00:02;;;;;;;9.00;5.85;;;;;;;;;;8226818;28;20499;-73
2021/07/12 10:04:14;;;;;;;8.90;5.40;;;;;;;;;;8239805;28;20473;-75
2021/07/12 10:08:20;;;;;;;9.48;5.25;;;;;;;;;;8241046;28;20460;-74
2021/07/12 10:12:28;;;;;;;6.57;5.13;;;;;;;;;;8226883;28;20391;-73
2021/07/12 10:16:33;;;;;;;15.23;5.50;;;;;;;;;;8227861;28;20072;-73
2021/07/12 10:20:40;;;;;;;8.25;5.30;;;;;;;;;;8234355;28;20490;-74
2021/07/12 10:24:48;;;;;;;6.78;4.97;;;;;;;;;;8247819;28;20080;-75
2021/07/12 10:29:14;;;;;;;7.30;4.88;;;;;;;;;;8223007;28;20049;-72
2021/07/12 10:33:32;;;;;;;12.32;7.40;;;;;;;;;;8236896;28;20411;-73
2021/07/12 10:37:41;;;;;;;;;;;;;;;;;;8224295;28;20369;-74
2021/07/12 10:41:49;;;;;;;7.20;5.35;;;;;;;;;;8223925;28;20248;-72
2021/07/12 10:45:55;;;;;;;7.45;4.65;;;;;;;;;;8225046;28;20055;-74
2021/07/12 10:49:59;;;;;;;7.35;4.00;;;;;;;;;;8225377;28;20369;-72
2021/07/12 10:54:14;;;;;;;5.72;4.35;;;;;;;;;;8224927;28;20373;-71
2021/07/12 10:58:19;;;;;;;8.30;5.45;;;;;;;;;;8223454;28;20068;-72
2021/07/12 11:02:32;;;;;;;5.10;4.35;;;;;;;;;;8225994;28;20045;-73
2021/07/12 11:06:54;;;;;;;5.90;3.78;;;;;;;;;;8224684;28;20049;-71
2021/07/12 11:10:59;;;;;;;8.82;3.97;;;;;;;;;;8225310;28;20440;-71
2021/07/12 11:15:09;;;;;;;6.32;4.35;;;;;;;;;;8224556;28;20371;-71
2021/07/12 11:19:31;;;;;;;6.63;4.55;;;;;;;;;;8225839;28;20479;-73
2021/07/12 11:23:55;;;;;;;7.07;4.00;;;;;;;;;;8223502;28;20064;-74
2021/07/12 11:28:13;;;;;;;7.25;4.00;;;;;;;;;;8225883;28;20046;-71
2021/07/12 11:32:19;;;;;;;6.82;4.93;;;;;;;;;;8222642;28;20346;-71
2021/07/12 11:36:24;;;;;;;6.53;4.38;;;;;;;;;;8223404;28;20345;-73
2021/07/12 11:40:29;;;;;;;5.43;4.30;;;;;;;;;;8226255;28;20373;-73
2021/07/12 11:44:35;;;;;;;6.80;4.95;;;;;;;;;;8225415;28;20042;-71
2021/07/12 11:48:40;;;;;;;6.65;4.70;;;;;;;;;;8223636;28;20384;-71
2021/07/12 11:52:47;;;;;;;6.47;4.70;;;;;;;;;;8224734;28;20368;-72
2021/07/12 11:57:05;;;;;;;9.32;5.30;;;;;;;;;;8223509;28;20408;-73
2021/07/12 12:01:20;;;;;;;7.00;4.43;;;;;;;;;;8230390;28;20068;-71
2021/07/12 12:05:25;;;;;;;6.28;4.78;;;;;;;;;;8231297;28;20045;-72
2021/07/12 12:09:52;;;;;;;7.55;4.80;;;;;;;;;;8242103;28;20476;-70
2021/07/12 12:13:57;;;;;;;9.52;4.50;;;;;;;;;;8229345;28;20380;-73
2021/07/12 12:18:13;;;;;;;12.77;3.92;;;;;;;;;;8228673;28;20464;-72
2021/07/12 12:22:22;;;;;;;5.40;3.45;;;;;;;;;;8230430;28;20468;-71
2021/07/12 12:26:28;;;;;;;9.70;4.03;;;;;;;;;;8229754;28;20417;-72
2021/07/12 12:30:33;;;;;;;7.57;3.63;;;;;;;;;;8211844;28;20368;-73
2021/07/12 12:34:40;;;;;;;3.40;3.10;;;;;;;;;;8231650;28;20369;-73
2021/07/12 12:39:09;;;;;;;6.68;3.03;;;;;;;;;;8230279;28;20353;-72
2021/07/12 12:43:17;;;;;;;4.70;2.55;;;;;;;;;;8228260;28;20388;-73
2021/07/12 12:47:28;;;;;;;4.35;2.60;;;;;;;;;;8230730;28;20476;-74
2021/07/12 12:51:35;;;;;;;4.20;2.50;;;;;;;;;;8228261;28;20377;-74
2021/07/12 12:55:39;;;;;;;3.15;2.72;;;;;;;;;;8231822;28;20096;-73
2021/07/12 12:59:47;;;;;;;3.70;2.38;;;;;;;;;;8227392;28;20474;-72
2021/07/12 13:03:52;;;;;;;3.20;2.28;;;;;;;;;;8212017;28;20360;-72
2021/07/12 13:08:05;;;;;;;3.70;2.50;;;;;;;;;;8228542;28;20328;-73
2021/07/12 13:12:15;;;;;;;3.75;2.53;;;;;;;;;;8228580;28;20491;-71
2021/07/12 13:16:20;;;;;;;4.43;2.47;;;;;;;;;;8229862;28;20460;-71
2021/07/12 13:20:28;;;;;;;3.55;2.13;;;;;;;;;;8228746;28;20484;-72
2021/07/12 13:24:50;;;;;;;3.30;2.10;;;;;;;;;;8226285;28;20057;-73
2021/07/12 13:29:01;;;;;;;3.08;2.55;;;;;;;;;;8227400;28;20049;-72
2021/07/12 13:33:06;;;;;;;5.30;3.30;;;;;;;;;;8228390;28;20045;-72
2021/07/12 13:37:12;;;;;;;6.32;3.78;;;;;;;;;;8229681;28;20063;-71
2021/07/12 13:41:17;;;;;;;3.53;2.45;;;;;;;;;;8227997;28;20507;-72
2021/07/12 13:45:26;;;;;;;5.55;2.22;;;;;;;;;;8226087;28;20498;-72
2021/07/12 13:49:31;;;;;;;4.07;2.70;;;;;;;;;;8229362;28;20456;-72
2021/07/12 13:53:37;;;;;;;6.78;2.40;;;;;;;;;;8226381;28;20472;-71
2021/07/12 13:57:44;;;;;;;3.78;2.78;;;;;;;;;;8227261;28;20041;-71
2021/07/12 14:01:50;;;;;;;7.55;3.08;;;;;;;;;;8227506;28;20476;-71
2021/07/12 14:05:56;;;;;;;3.30;2.45;;;;;;;;;;8226177;28;20477;-73
2021/07/12 14:10:02;;;;;;;3.97;2.35;;;;;;;;;;8226821;28;20341;-71
2021/07/12 14:14:09;;;;;;;3.30;2.25;;;;;;;;;;8241277;28;20379;-72
2021/07/12 14:18:15;;;;;;;8.23;2.35;;;;;;;;;;8227391;28;20555;-72
2021/07/12 14:22:20;;;;;;;3.13;2.10;;;;;;;;;;8242356;28;20366;-73
2021/07/12 14:26:25;;;;;;;5.40;2.50;;;;;;;;;;8211843;28;20046;-74
2021/07/12 14:30:30;;;;;;;3.10;2.00;;;;;;;;;;8193833;28;20483;-73
2021/07/12 14:34:36;;;;;;;2.80;1.98;;;;;;;;;;8194296;28;20472;-71
2021/07/12 14:38:41;;;;;;;3.15;1.92;;;;;;;;;;8195545;28;20503;-72
2021/07/12 14:42:47;;;;;;;4.90;1.60;;;;;;;;;;8193318;28;20480;-71
2021/07/12 14:46:52;;;;;;;1.77;1.50;;;;;;;;;;8193874;28;20358;-72
2021/07/12 14:50:59;;;;;;;4.85;1.83;;;;;;;;;;8195317;28;20076;-71
2021/07/12 14:55:06;;;;;;;3.15;1.85;;;;;;;;;;8176995;28;20485;-72
2021/07/12 14:59:11;;;;;;;2.65;1.75;;;;;;;;;;8193332;28;20377;-71
2021/07/12 15:03:16;;;;;;;2.35;1.45;;;;;;;;;;8195631;28;20468;-70
2021/07/12 15:07:22;;;;;;;2.35;1.48;;;;;;;;;;8191430;28;20523;-70
2021/07/12 15:11:28;;;;;;;1.98;1.50;;;;;;;;;;8193667;28;20361;-70
2021/07/12 15:15:33;;;;;;;5.00;1.77;;;;;;;;;;8192506;28;20054;-70
2021/07/12 15:19:39;;;;;;;3.35;1.77;;;;;;;;;;8193444;28;20472;-72
2021/07/12 15:23:44;;;;;;;2.55;1.60;;;;;;;;;;8193243;28;20071;-72
2021/07/12 15:27:49;;;;;;;2.60;1.50;;;;;;;;;;8193226;28;20511;-72
2021/07/12 15:31:55;;;;;;;2.53;1.55;;;;;;;;;;8191067;28;20469;-70
2021/07/12 15:36:03;;;;;;;2.35;1.20;;;;;;;;;;8192523;28;20380;-71
2021/07/12 15:40:10;;;;;;;1.10;1.00;;;;;;;;;;8193522;28;20360;-72
2021/07/12 15:44:18;;;;;;;1.30;1.10;;;;;;;;;;8193109;28;20342;-72
2021/07/12 15:48:22;;;;;;;4.40;1.70;;;;;;;;;;8193527;28;20499;-72
2021/07/12 15:52:27;;;;;;;2.50;1.30;;;;;;;;;;8193696;28;20057;-70
2021/07/12 15:56:33;;;;;;;6.78;1.30;;;;;;;;;;8191894;28;20068;-72
2021/07/12 16:00:39;;;;;;;2.53;1.40;;;;;;;;;;8192288;28;20464;-72
2021/07/12 16:04:44;;;;;;;1.83;1.40;;;;;;;;;;8191701;28;20495;-70
2021/07/12 16:08:49;;;;;;;1.48;1.13;;;;;;;;;;8193067;28;20449;-72
2021/07/12 16:12:54;;;;;;;1.52;1.25;;;;;;;;;;8191400;28;20050;-69
2021/07/12 16:17:01;;;;;;;1.90;1.40;;;;;;;;;;8192072;28;20361;-70
2021/07/12 16:21:10;;;;;;;2.17;1.33;;;;;;;;;;8207584;28;20361;-73
2021/07/12 16:25:15;;;;;;;2.65;1.13;;;;;;;;;;8192370;28;20342;-69
2021/07/12 16:29:24;;;;;;;1.77;1.35;;;;;;;;;;8191550;28;20354;-69
2021/07/12 16:33:31;;;;;;;3.42;1.35;;;;;;;;;;8190227;28;20400;-72
2021/07/12 16:37:37;;;;;;;2.65;1.75;;;;;;;;;;8224921;28;20365;-69
2021/07/12 16:41:42;;;;;;;1.90;1.50;;;;;;;;;;8224532;28;20485;-71
2021/07/12 16:46:01;;;;;;;5.63;1.20;;;;;;;;;;8228768;28;20057;-70
2021/07/12 16:50:08;;;;;;;1.35;1.10;;;;;;;;;;8230044;28;20037;-71
2021/07/12 16:54:14;;;;;;;2.13;1.20;;;;;;;;;;8229158;28;20453;-72
2021/07/12 16:58:19;;;;;;;1.65;1.20;;;;;;;;;;8229201;28;20456;-70
2021/07/12 17:02:25;;;;;;;2.15;1.30;;;;;;;;;;8228795;28;20075;-70
2021/07/12 17:06:31;;;;;;;1.92;1.63;;;;;;;;;;8227002;28;20476;-72
2021/07/12 17:10:37;;;;;;;4.15;1.25;;;;;;;;;;8230142;28;20053;-70
2021/07/12 17:14:42;;;;;;;1.77;1.50;;;;;;;;;;8228784;28;20371;-70
2021/07/12 17:19:07;;;;;;;3.25;1.25;;;;;;;;;;8226716;28;20352;-71
2021/07/12 17:23:13;;;;;;;1.85;1.25;;;;;;;;;;8228781;28;20483;-70
2021/07/12 17:27:19;;;;;;;1.65;1.55;;;;;;;;;;8191375;28;20401;-71
2021/07/12 17:31:24;;;;;;;2.72;1.60;;;;;;;;;;8196131;28;20372;-71
2021/07/12 17:35:30;;;;;;;1.73;1.23;;;;;;;;;;8195711;28;20373;-73
2021/07/12 17:39:35;;;;;;;11.02;4.60;;;;;;;;;;8194394;28;20050;-69
2021/07/12 17:43:41;;;;;;;5.90;2.90;;;;;;;;;;8195784;28;20368;-70
2021/07/12 17:47:46;;;;;;;15.52;6.18;;;;;;;;;;8193964;28;20454;-71
2021/07/12 17:51:52;;;;;;;2.92;2.10;;;;;;;;;;8193412;28;20076;-70
2021/07/12 17:56:02;;;;;;;3.22;1.80;;;;;;;;;;8127247;28;20430;-72
2021/07/12 18:00:09;;;;;;;2.15;1.30;;;;;;;;;;8196005;28;20049;-70
2021/07/12 18:04:15;;;;;;;5.72;1.98;;;;;;;;;;8194606;28;20465;-71
2021/07/12 18:08:20;;;;;;;2.70;1.80;;;;;;;;;;8195165;28;20483;-71
2021/07/12 18:12:26;;;;;;;3.58;1.75;;;;;;;;;;8195560;28;20042;-72
2021/07/12 18:16:34;;;;;;;11.25;4.45;;;;;;;;;;8192499;28;20360;-72
2021/07/12 18:20:41;;;;;;;3.80;1.92;;;;;;;;;;8193698;28;20050;-72
2021/07/12 18:24:46;;;;;;;4.72;1.60;;;;;;;;;;8192560;28;20421;-70
2021/07/12 18:28:51;;;;;;;2.33;1.70;;;;;;;;;;8192986;28;20049;-72
2021/07/12 18:32:57;;;;;;;7.15;1.63;;;;;;;;;;8195385;28;20453;-72
2021/07/12 18:37:02;;;;;;;7.20;3.88;;;;;;;;;;8191544;28;20441;-71
2021/07/12 18:41:10;;;;;;;8.82;2.10;;;;;;;;;;8194081;28;20079;-70
2021/07/12 18:45:17;;;;;;;4.22;2.65;;;;;;;;;;8177376;28;20361;-70
2021/07/12 18:49:23;;;;;;;2.70;1.85;;;;;;;;;;8193321;28;20354;-69
2021/07/12 18:53:30;;;;;;;2.33;1.75;;;;;;;;;;8191020;28;20504;-70
2021/07/12 18:57:36;;;;;;;2.90;1.92;;;;;;;;;;8193167;28;20484;-71
2021/07/12 19:01:41;;;;;;;3.13;2.15;;;;;;;;;;8192409;28;20045;-71
2021/07/12 19:05:48;;;;;;;6.07;1.80;;;;;;;;;;8192603;28;20453;-71
2021/07/12 19:09:53;;;;;;;2.05;1.75;;;;;;;;;;8193718;28;20050;-70
2021/07/12 19:13:58;;;;;;;2.13;1.85;;;;;;;;;;8191807;28;20477;-71
2021/07/12 19:18:04;;;;;;;2.90;2.08;;;;;;;;;;8192263;28;20468;-70
2021/07/12 19:22:09;;;;;;;2.50;1.73;;;;;;;;;;8193070;28;20381;-69
2021/07/12 19:26:18;;;;;;;4.00;1.85;;;;;;;;;;8192416;28;20499;-70
2021/07/12 19:30:26;;;;;;;4.70;2.30;;;;;;;;;;8192239;28;20368;-70
2021/07/12 19:34:31;;;;;;;3.35;1.80;;;;;;;;;;8190668;28;20484;-70
2021/07/12 19:38:36;;;;;;;3.72;2.00;;;;;;;;;;8190622;28;20351;-71
2021/07/12 19:42:42;;;;;;;3.33;2.30;;;;;;;;;;8191335;28;20370;-71
2021/07/12 19:46:48;;;;;;;3.33;2.20;;;;;;;;;;8190249;28;20457;-69
2021/07/12 19:50:57;;;;;;;3.22;2.08;;;;;;;;;;8194136;28;20054;-69
2021/07/12 19:55:06;;;;;;;3.25;2.08;;;;;;;;;;8178988;28;20367;-71
2021/07/12 19:59:11;;;;;;;3.45;1.85;;;;;;;;;;8191526;28;20469;-70
2021/07/12 20:03:17;;;;;;;8.27;2.33;;;;;;;;;;8192498;28;20377;-69
2021/07/12 20:07:23;;;;;;;2.97;2.35;;;;;;;;;;8190490;28;20077;-69
2021/07/12 20:11:28;;;;;;;5.18;1.80;;;;;;;;;;8193027;28;20049;-71
2021/07/12 20:15:34;;;;;;;7.32;2.15;;;;;;;;;;8190648;28;20461;-71
2021/07/12 20:19:39;;;;;;;3.15;2.30;;;;;;;;;;8196235;28;20361;-71
2021/07/12 20:23:44;;;;;;;4.10;2.58;;;;;;;;;;8196523;28;20493;-71
2021/07/12 20:27:51;;;;;;;4.03;2.15;;;;;;;;;;8196377;28;20457;-72
2021/07/12 20:31:56;;;;;;;2.50;2.17;;;;;;;;;;8196451;28;20050;-70
2021/07/12 20:36:03;;;;;;;4.65;2.58;;;;;;;;;;8198983;28;20368;-71
2021/07/12 20:40:19;;;;;;;7.10;2.47;;;;;;;;;;8197080;28;20404;-70
2021/07/12 20:44:24;;;;;;;3.92;2.58;;;;;;;;;;8181787;28;20450;-71
2021/07/12 20:48:30;;;;;;;8.43;2.67;;;;;;;;;;8212569;28;20046;-70
2021/07/12 20:52:37;;;;;;;3.08;2.17;;;;;;;;;;8197135;28;20054;-71
2021/07/12 20:56:42;;;;;;;7.03;2.70;;;;;;;;;;8196617;28;20560;-72
2021/07/12 21:00:47;;;;;;;6.00;2.50;;;;;;;;;;8196457;28;20512;-71
2021/07/12 21:04:52;;;;;;;5.22;3.22;;;;;;;;;;8197723;28;20465;-69
2021/07/12 21:08:57;;;;;;;3.00;2.47;;;;;;;;;;8196770;28;20400;-71
2021/07/12 21:13:03;;;;;;;4.82;2.65;;;;;;;;;;8195563;28;20469;-72
2021/07/12 21:17:08;;;;;;;4.68;2.95;;;;;;;;;;8197089;28;20481;-71
2021/07/12 21:21:14;;;;;;;7.53;3.17;;;;;;;;;;8194523;28;20330;-70
2021/07/12 21:25:20;;;;;;;9.25;4.28;;;;;;;;;;8194740;28;20411;-70
2021/07/12 21:29:25;;;;;;;7.65;3.58;;;;;;;;;;8195589;28;20054;-69
2021/07/12 21:33:31;;;;;;;5.97;3.17;;;;;;;;;;8209274;28;20489;-70
2021/07/12 21:37:36;;;;;;;4.18;3.08;;;;;;;;;;8194979;28;20485;-72
2021/07/12 21:41:41;;;;;;;7.18;4.10;;;;;;;;;;8198620;28;20453;-69
2021/07/12 21:45:47;;;;;;;5.95;3.30;;;;;;;;;;8195363;28;20370;-70
2021/07/12 21:49:53;;;;;;;7.53;3.30;;;;;;;;;;8179212;28;20057;-72
2021/07/12 21:53:58;;;;;;;6.07;3.25;;;;;;;;;;8195778;28;20479;-69
2021/07/12 21:58:04;;;;;;;6.97;3.88;;;;;;;;;;8195911;28;20445;-72
2021/07/12 22:02:11;;;;;;;4.40;3.25;;;;;;;;;;8195481;28;20331;-73
2021/07/12 22:06:17;;;;;;;5.77;3.50;;;;;;;;;;8193835;28;20049;-71
2021/07/12 22:10:41;;;;;;;7.40;3.60;;;;;;;;;;8193804;28;20348;-71
2021/07/12 22:14:46;;;;;;;5.68;3.30;;;;;;;;;;8193103;28;20461;-70
2021/07/12 22:18:51;;;;;;;6.88;3.90;;;;;;;;;;8209490;28;20538;-71
2021/07/12 22:23:04;;;;;;;6.78;3.58;;;;;;;;;;8194529;28;20495;-70
2021/07/12 22:27:10;;;;;;;15.05;4.50;;;;;;;;;;8194577;28;20357;-71
2021/07/12 22:31:16;;;;;;;7.28;3.45;;;;;;;;;;8194587;28;20380;-69
2021/07/12 22:35:23;;;;;;;4.60;3.63;;;;;;;;;;8194575;28;20462;-70
2021/07/12 22:39:28;;;;;;;7.93;3.30;;;;;;;;;;8193798;28;20057;-70
2021/07/12 22:43:33;;;;;;;8.15;3.58;;;;;;;;;;8193070;28;20405;-72
2021/07/12 22:47:39;;;;;;;7.63;4.20;;;;;;;;;;8194181;28;20361;-70
2021/07/12 22:51:44;;;;;;;8.38;3.08;;;;;;;;;;8191767;28;20385;-69
2021/07/12 22:55:52;;;;;;;7.35;3.63;;;;;;;;;;8195096;28;20042;-69
2021/07/12 22:59:58;;;;;;;5.68;3.08;;;;;;;;;;8193655;28;20342;-69
2021/07/12 23:04:03;;;;;;;11.45;3.90;;;;;;;;;;8193040;28;20369;-71
2021/07/12 23:08:09;;;;;;;6.28;2.97;;;;;;;;;;8193096;28;20361;-69
2021/07/12 23:12:15;;;;;;;5.70;3.92;;;;;;;;;;8191630;28;20460;-69
2021/07/12 23:16:20;;;;;;;9.55;3.83;;;;;;;;;;8193538;28;20042;-71
2021/07/12 23:20:28;;;;;;;8.07;3.50;;;;;;;;;;8194157;28;20076;-70
2021/07/12 23:24:34;;;;;;;6.50;3.40;;;;;;;;;;8191897;28;20503;-69
2021/07/12 23:28:39;;;;;;;11.88;4.10;;;;;;;;;;8192180;28;20469;-70
2021/07/12 23:32:45;;;;;;;7.88;4.20;;;;;;;;;;8193872;28;20362;-69
2021/07/12 23:36:50;;;;;;;12.50;4.45;;;;;;;;;;8191449;28;20397;-69
2021/07/12 23:40:55;;;;;;;16.75;4.88;;;;;;;;;;8206653;28;20345;-68
2021/07/12 23:45:00;;;;;;;8.68;4.15;;;;;;;;;;8192763;28;20042;-71
2021/07/12 23:49:06;;;;;;;8.25;4.15;;;;;;;;;;8192646;28;20042;-69
2021/07/12 23:53:11;;;;;;;9.70;5.38;;;;;;;;;;8206180;28;20054;-71
2021/07/12 23:57:16;;;;;;;7.55;4.20;;;;;;;;;;8198393;28;20361;-69
